createdAt,value
2019-05-02T00:01:03.011Z,25.27
2019-05-02T00:03:51.368Z,24.90
2019-05-02T00:06:42.879Z,25.12
2019-05-02T00:09:29.277Z,24.25
2019-05-02T00:12:18.541Z,24.77
2019-05-02T00:15:08.445Z,32.53
2019-05-02T00:18:01.473Z,25.50
2019-05-02T00:20:47.130Z,38.28
2019-05-02T00:23:35.034Z,41.33
2019-05-02T00:26:24.576Z,46.20
2019-05-02T00:29:12.215Z,44.18
2019-05-02T00:32:00.979Z,46.88
2019-05-02T00:34:48.758Z,45.55
2019-05-02T00:37:37.039Z,44.45
2019-05-02T00:40:27.455Z,45.00
2019-05-02T00:43:15.145Z,44.20
2019-05-02T00:46:03.272Z,43.05
2019-05-02T00:48:54.121Z,43.90
2019-05-02T00:51:42.920Z,45.43
2019-05-02T00:54:30.612Z,44.95
2019-05-02T00:57:19.931Z,43.40
2019-05-02T01:00:13.450Z,40.65
2019-05-02T01:03:01.153Z,41.40
2019-05-02T01:05:49.087Z,42.95
2019-05-02T01:08:37.009Z,45.92
2019-05-02T01:11:28.182Z,46.40
2019-05-02T01:14:15.278Z,43.85
2019-05-02T01:17:03.482Z,42.88
2019-05-02T01:19:52.724Z,43.52
2019-05-02T01:22:41.172Z,38.98
2019-05-02T01:25:31.159Z,38.63
2019-05-02T01:28:20.461Z,33.50
2019-05-02T01:31:18.207Z,41.00
2019-05-02T01:34:04.707Z,34.63
2019-05-02T01:36:55.003Z,40.20
2019-05-02T01:39:44.112Z,41.92
2019-05-02T01:42:39.549Z,40.00
2019-05-02T01:45:21.830Z,29.92
2019-05-02T01:48:11.006Z,29.82
2019-05-02T01:50:59.184Z,31.52
2019-05-02T01:53:47.514Z,34.30
2019-05-02T01:56:35.543Z,31.48
2019-05-02T01:59:23.947Z,23.40
2019-05-02T02:02:12.548Z,29.65
2019-05-02T02:05:00.761Z,25.25
2019-05-02T02:07:50.727Z,20.48
2019-05-02T02:10:39.566Z,33.33
2019-05-02T02:13:31.130Z,36.28
2019-05-02T02:16:17.322Z,31.73
2019-05-02T02:19:10.119Z,28.25
2019-05-02T02:22:02.860Z,29.80
2019-05-02T02:24:50.758Z,27.00
2019-05-02T02:27:38.831Z,25.05
2019-05-02T02:30:26.853Z,29.42
2019-05-02T02:33:15.047Z,26.60
2019-05-02T02:36:03.679Z,25.75
2019-05-02T02:38:51.519Z,29.92
2019-05-02T02:41:39.417Z,31.65
2019-05-02T02:44:33.538Z,36.60
2019-05-02T02:47:20.912Z,26.68
2019-05-02T02:50:08.182Z,26.20
2019-05-02T02:52:56.064Z,32.53
2019-05-02T02:55:44.287Z,39.65
2019-05-02T02:58:44.619Z,59.70
2019-05-02T03:01:28.716Z,58.58
2019-05-02T03:04:12.240Z,55.85
2019-05-02T03:07:01.081Z,55.15
2019-05-02T03:09:49.017Z,49.30
2019-05-02T03:12:41.527Z,48.95
2019-05-02T03:15:30.809Z,48.08
2019-05-02T03:18:18.371Z,47.62
2019-05-02T03:21:06.152Z,46.85
2019-05-02T03:24:03.026Z,49.00
2019-05-02T03:26:48.602Z,58.20
2019-05-02T03:29:41.075Z,55.10
2019-05-02T03:32:33.050Z,49.45
2019-05-02T03:35:18.416Z,51.75
2019-05-02T03:38:04.090Z,51.68
2019-05-02T03:40:52.246Z,46.85
2019-05-02T03:43:40.113Z,51.25
2019-05-02T03:46:28.497Z,55.28
2019-05-02T03:49:16.623Z,67.20
2019-05-02T03:52:06.050Z,62.33
2019-05-02T03:54:58.865Z,57.35
2019-05-02T03:57:46.588Z,53.17
2019-05-02T04:00:35.322Z,53.00
2019-05-02T04:03:23.939Z,48.38
2019-05-02T04:06:20.275Z,51.70
2019-05-02T04:09:03.920Z,61.23
2019-05-02T04:11:52.141Z,61.88
2019-05-02T04:14:40.627Z,54.75
2019-05-02T04:17:35.264Z,53.48
2019-05-02T04:20:18.417Z,58.95
2019-05-02T04:23:06.997Z,58.85
2019-05-02T04:25:55.891Z,64.45
2019-05-02T04:28:45.532Z,65.00
2019-05-02T04:31:34.055Z,62.80
2019-05-02T04:34:21.723Z,61.37
2019-05-02T04:37:09.441Z,59.60
2019-05-02T04:39:59.137Z,61.28
2019-05-02T04:42:53.468Z,55.88
2019-05-02T04:45:51.627Z,56.85
2019-05-02T04:48:28.365Z,54.88
2019-05-02T04:51:17.489Z,58.38
2019-05-02T04:54:04.820Z,59.58
2019-05-02T04:56:55.302Z,60.12
2019-05-02T04:59:41.965Z,66.82
2019-05-02T05:02:36.181Z,67.85
2019-05-02T05:05:25.795Z,66.67
2019-05-02T05:08:08.601Z,63.17
2019-05-02T05:10:57.412Z,64.12
2019-05-02T05:13:47.964Z,65.97
2019-05-02T05:16:37.307Z,65.78
2019-05-02T05:19:28.707Z,65.05
2019-05-02T05:22:14.784Z,63.02
2019-05-02T05:25:04.601Z,81.37
2019-05-02T05:27:58.694Z,68.12
2019-05-02T05:30:45.120Z,62.10
2019-05-02T05:33:33.122Z,62.15
2019-05-02T05:36:29.272Z,62.20
2019-05-02T05:39:11.811Z,60.50
2019-05-02T05:41:59.753Z,63.00
2019-05-02T05:44:48.422Z,62.20
2019-05-02T05:47:37.850Z,61.05
2019-05-02T05:50:27.576Z,58.60
2019-05-02T05:53:17.377Z,58.45
2019-05-02T05:56:07.789Z,59.45
2019-05-02T05:58:58.869Z,59.90
2019-05-02T06:01:45.077Z,61.60
2019-05-02T06:04:33.410Z,58.85
2019-05-02T06:07:21.397Z,61.73
2019-05-02T06:10:09.967Z,59.93
2019-05-02T06:12:58.245Z,58.78
2019-05-02T06:15:46.511Z,61.05
2019-05-02T06:18:36.244Z,57.90
2019-05-02T06:21:25.774Z,55.12
2019-05-02T06:24:15.655Z,54.75
2019-05-02T06:27:03.669Z,57.75
2019-05-02T06:29:56.183Z,57.83
2019-05-02T06:32:41.771Z,56.92
2019-05-02T06:35:30.187Z,55.15
2019-05-02T06:38:21.660Z,55.05
2019-05-02T06:41:08.451Z,57.05
2019-05-02T06:43:56.505Z,58.10
2019-05-02T06:46:45.305Z,57.20
2019-05-02T06:49:33.726Z,57.15
2019-05-02T06:52:21.732Z,59.27
2019-05-02T06:55:10.540Z,57.95
2019-05-02T06:58:02.848Z,55.43
2019-05-02T07:00:57.706Z,52.80
2019-05-02T07:03:41.327Z,54.50
2019-05-02T07:06:27.870Z,54.58
2019-05-02T07:09:16.090Z,52.38
2019-05-02T07:12:05.153Z,53.30
2019-05-02T07:14:56.179Z,49.75
2019-05-02T07:17:44.508Z,49.20
2019-05-02T07:20:35.261Z,63.33
2019-05-02T07:23:22.408Z,52.10
2019-05-02T07:26:10.675Z,56.05
2019-05-02T07:28:58.417Z,52.43
2019-05-02T07:31:47.767Z,51.08
2019-05-02T07:34:36.625Z,49.27
2019-05-02T07:37:24.643Z,48.20
2019-05-02T07:40:16.864Z,47.50
2019-05-02T07:43:02.859Z,48.20
2019-05-02T07:45:51.332Z,45.90
2019-05-02T07:48:40.026Z,47.13
2019-05-02T07:51:28.177Z,48.02
2019-05-02T07:54:19.428Z,46.23
2019-05-02T07:57:06.719Z,48.33
2019-05-02T08:00:00.449Z,46.63
2019-05-02T08:02:46.152Z,47.25
2019-05-02T08:05:33.971Z,49.60
2019-05-02T08:08:24.966Z,44.77
2019-05-02T08:11:12.074Z,47.85
2019-05-02T08:14:00.614Z,47.90
2019-05-02T08:16:49.534Z,46.85
2019-05-02T08:19:41.611Z,43.15
2019-05-02T08:22:28.343Z,42.75
2019-05-02T08:25:16.308Z,43.02
2019-05-02T08:28:10.214Z,44.25
2019-05-02T08:30:56.593Z,43.58
2019-05-02T08:33:46.748Z,39.42
2019-05-02T08:36:34.586Z,41.90
2019-05-02T08:39:25.895Z,41.05
2019-05-02T08:42:12.501Z,40.65
2019-05-02T08:45:01.452Z,37.80
2019-05-02T08:47:49.906Z,38.17
2019-05-02T08:50:37.805Z,38.02
2019-05-02T08:53:26.153Z,37.15
2019-05-02T08:56:16.056Z,36.65
2019-05-02T08:59:04.117Z,36.03
2019-05-02T09:01:52.559Z,36.25
2019-05-02T09:04:40.449Z,37.00
2019-05-02T09:07:31.662Z,35.85
2019-05-02T09:10:18.720Z,33.48
2019-05-02T09:13:06.980Z,34.43
2019-05-02T09:15:55.722Z,33.45
2019-05-02T09:18:50.746Z,33.65
2019-05-02T09:21:35.984Z,31.65
2019-05-02T09:24:23.925Z,32.50
2019-05-02T09:27:12.690Z,33.45
2019-05-02T09:30:02.735Z,33.42
2019-05-02T09:32:52.165Z,32.55
2019-05-02T09:35:42.200Z,31.40
2019-05-02T09:38:32.724Z,30.90
2019-05-02T09:41:22.127Z,32.88
2019-05-02T09:44:17.103Z,31.65
2019-05-02T09:47:02.246Z,34.73
2019-05-02T09:49:53.093Z,34.88
2019-05-02T09:52:43.669Z,34.13
2019-05-02T09:55:31.748Z,30.80
2019-05-02T09:58:21.369Z,33.45
2019-05-02T10:01:13.380Z,31.48
2019-05-02T10:04:02.371Z,35.55
2019-05-02T10:06:52.442Z,29.45
2019-05-02T10:09:40.040Z,34.58
2019-05-02T10:12:28.329Z,31.42
2019-05-02T10:15:18.275Z,30.68
2019-05-02T10:18:11.066Z,32.88
2019-05-02T10:20:55.493Z,32.42
2019-05-02T10:23:43.998Z,35.05
2019-05-02T10:26:32.973Z,36.30
2019-05-02T10:29:28.084Z,34.90
2019-05-02T10:32:12.992Z,33.88
2019-05-02T10:35:02.116Z,33.23
2019-05-02T10:37:52.023Z,65.75
2019-05-02T10:40:40.040Z,35.03
2019-05-02T10:43:28.649Z,37.13
2019-05-02T10:46:18.835Z,33.70
2019-05-02T10:49:19.921Z,36.53
2019-05-02T10:52:08.188Z,35.00
2019-05-02T10:54:56.474Z,34.05
2019-05-02T10:57:44.368Z,32.95
2019-05-02T11:00:34.321Z,33.78
2019-05-02T11:03:32.956Z,35.52
2019-05-02T11:06:22.253Z,33.88
2019-05-02T11:09:12.025Z,35.08
2019-05-02T11:12:02.584Z,32.93
2019-05-02T11:15:08.880Z,35.92
2019-05-02T11:17:57.289Z,38.88
2019-05-02T11:20:45.595Z,40.95
2019-05-02T11:23:33.865Z,39.23
2019-05-02T11:26:25.065Z,37.33
2019-05-02T11:29:12.153Z,37.90
2019-05-02T11:32:02.240Z,34.20
2019-05-02T11:34:49.725Z,41.08
2019-05-02T11:37:37.038Z,40.08
2019-05-02T11:40:25.143Z,39.40
2019-05-02T11:43:13.397Z,37.40
2019-05-02T11:46:07.082Z,31.33
2019-05-02T11:48:56.473Z,37.98
2019-05-02T11:51:42.131Z,37.78
2019-05-02T11:54:31.989Z,36.10
2019-05-02T11:57:28.333Z,38.83
2019-05-02T12:00:12.467Z,37.33
2019-05-02T12:03:13.627Z,36.55
2019-05-02T12:06:06.715Z,38.08
2019-05-02T12:08:52.520Z,37.93
2019-05-02T12:11:41.836Z,39.53
2019-05-02T12:14:32.859Z,32.80
2019-05-02T12:17:19.396Z,33.33
2019-05-02T12:20:08.054Z,38.65
2019-05-02T12:22:56.128Z,37.33
2019-05-02T12:25:44.684Z,35.83
2019-05-02T12:28:33.107Z,34.80
2019-05-02T12:31:27.156Z,34.00
2019-05-02T12:34:14.878Z,33.78
2019-05-02T12:37:02.621Z,32.17
2019-05-02T12:39:51.707Z,33.08
2019-05-02T12:42:41.735Z,32.13
2019-05-02T12:45:29.442Z,28.38
2019-05-02T12:48:17.585Z,32.42
2019-05-02T12:51:05.941Z,30.37
2019-05-02T12:53:54.428Z,27.75
2019-05-02T12:56:44.106Z,26.45
2019-05-02T12:59:32.271Z,26.90
2019-05-02T13:02:22.789Z,24.43
2019-05-02T13:05:13.023Z,25.75
2019-05-02T13:08:00.182Z,26.97
2019-05-02T13:11:08.419Z,27.58
2019-05-02T13:13:56.623Z,26.02
2019-05-02T13:16:44.891Z,26.33
2019-05-02T13:19:57.045Z,29.75
2019-05-02T13:22:52.727Z,29.35
2019-05-02T13:25:42.365Z,30.30
2019-05-02T13:28:32.343Z,28.98
2019-05-02T13:31:24.956Z,28.02
2019-05-02T13:34:23.513Z,28.77
2019-05-02T13:37:12.831Z,30.68
2019-05-02T13:40:02.822Z,28.92
2019-05-02T13:42:52.306Z,26.75
2019-05-02T13:45:43.249Z,21.93
2019-05-02T13:48:32.275Z,21.62
2019-05-02T13:51:22.330Z,21.68
2019-05-02T13:54:12.432Z,21.73
2019-05-02T13:57:00.256Z,21.73
2019-05-02T13:59:48.234Z,24.55
2019-05-02T14:02:38.886Z,23.52
2019-05-02T14:05:27.511Z,20.52
2019-05-02T14:08:17.681Z,23.77
2019-05-02T14:11:07.266Z,21.00
2019-05-02T14:13:55.226Z,21.27
2019-05-02T14:16:43.411Z,21.77
2019-05-02T14:19:32.313Z,19.95
2019-05-02T14:22:20.216Z,23.15
2019-05-02T14:25:08.459Z,22.77
2019-05-02T14:27:56.932Z,23.55
2019-05-02T14:30:46.347Z,24.07
2019-05-02T14:33:36.577Z,21.52
2019-05-02T14:36:25.105Z,21.93
2019-05-02T14:39:13.067Z,21.73
2019-05-02T14:42:02.095Z,20.17
2019-05-02T14:45:05.597Z,22.05
2019-05-02T14:47:39.878Z,22.77
2019-05-02T14:50:28.550Z,21.27
2019-05-02T14:53:16.886Z,19.20
2019-05-02T14:56:12.471Z,20.25
2019-05-02T14:59:00.119Z,17.73
2019-05-02T15:01:57.791Z,19.70
2019-05-02T15:04:48.937Z,17.15
2019-05-02T15:07:34.456Z,17.77
2019-05-02T15:10:22.832Z,17.98
2019-05-02T15:13:12.569Z,19.12
2019-05-02T15:16:02.483Z,19.35
2019-05-02T15:18:53.172Z,21.60
2019-05-02T15:21:47.024Z,22.20
2019-05-02T15:24:37.615Z,19.55
2019-05-02T15:27:22.356Z,22.30
2019-05-02T15:30:11.368Z,20.97
2019-05-02T15:33:04.083Z,19.23
2019-05-02T15:36:03.061Z,21.15
2019-05-02T15:38:48.905Z,19.37
2019-05-02T15:41:39.904Z,20.17
2019-05-02T15:44:27.115Z,20.85
2019-05-02T15:47:15.360Z,19.65
2019-05-02T15:50:05.362Z,19.60
2019-05-02T15:53:03.306Z,18.27
2019-05-02T15:55:52.564Z,16.52
2019-05-02T15:58:39.978Z,17.00
2019-05-02T16:01:36.667Z,17.17
2019-05-02T16:04:25.625Z,15.95
2019-05-02T16:07:13.661Z,16.62
2019-05-02T16:10:03.842Z,18.00
2019-05-02T16:12:52.677Z,17.73
2019-05-02T16:15:42.683Z,16.12
2019-05-02T16:18:31.714Z,14.85
2019-05-02T16:21:28.426Z,17.57
2019-05-02T16:24:22.515Z,17.73
2019-05-02T16:27:11.695Z,18.40
2019-05-02T16:30:06.075Z,17.32
2019-05-02T16:32:53.456Z,17.32
2019-05-02T16:35:42.013Z,15.48
2019-05-02T16:38:49.765Z,17.95
2019-05-02T16:41:45.269Z,17.70
2019-05-02T16:44:27.561Z,20.05
2019-05-02T16:47:17.126Z,18.48
2019-05-02T16:50:13.121Z,16.32
2019-05-02T16:53:02.251Z,16.77
2019-05-02T16:55:51.065Z,15.50
2019-05-02T16:58:44.790Z,16.80
2019-05-02T17:01:28.658Z,14.78
2019-05-02T17:04:16.918Z,15.55
2019-05-02T17:07:07.136Z,16.35
2019-05-02T17:09:56.210Z,16.42
2019-05-02T17:12:47.310Z,15.40
2019-05-02T17:15:37.074Z,16.12
2019-05-02T17:18:25.411Z,15.20
2019-05-02T17:21:13.696Z,14.53
2019-05-02T17:24:02.587Z,14.53
2019-05-02T17:26:51.902Z,16.20
2019-05-02T17:29:41.529Z,15.30
2019-05-02T17:32:34.162Z,13.50
2019-05-02T17:35:22.013Z,15.60
2019-05-02T17:38:11.892Z,13.70
2019-05-02T17:41:06.393Z,16.05
2019-05-02T17:43:49.084Z,14.98
2019-05-02T17:46:39.295Z,14.58
2019-05-02T17:49:31.851Z,15.20
2019-05-02T17:52:25.989Z,14.53
2019-05-02T17:55:09.388Z,14.98
2019-05-02T17:57:56.990Z,15.20
2019-05-02T18:00:52.318Z,14.85
2019-05-02T18:03:42.361Z,13.90
2019-05-02T18:06:32.986Z,10.35
2019-05-02T18:09:21.562Z,11.08
2019-05-02T18:12:12.560Z,13.43
2019-05-02T18:15:00.471Z,14.53
2019-05-02T18:17:48.840Z,12.73
2019-05-02T18:20:55.903Z,13.45
2019-05-02T18:23:44.086Z,12.45
2019-05-02T18:26:33.029Z,11.97
2019-05-02T18:29:21.768Z,9.40
2019-05-02T18:32:17.523Z,9.50
2019-05-02T18:35:06.550Z,8.38
2019-05-02T18:37:54.530Z,7.65
2019-05-02T18:40:43.479Z,7.05
2019-05-02T18:43:35.955Z,7.40
2019-05-02T18:46:22.318Z,20.82
2019-05-02T18:49:12.326Z,22.73
2019-05-02T18:52:01.794Z,23.90
2019-05-02T18:54:51.751Z,25.20
2019-05-02T18:57:39.922Z,25.05
2019-05-02T19:00:35.434Z,24.10
2019-05-02T19:03:17.907Z,25.05
2019-05-02T19:06:07.238Z,25.32
2019-05-02T19:08:58.054Z,24.15
2019-05-02T19:11:46.644Z,23.55
2019-05-02T19:14:35.431Z,20.37
2019-05-02T19:17:23.315Z,19.80
2019-05-02T19:20:29.170Z,14.95
2019-05-02T19:23:16.598Z,15.95
2019-05-02T19:26:10.027Z,14.30
2019-05-02T19:28:57.642Z,10.28
2019-05-02T19:31:46.500Z,7.58
2019-05-02T19:34:34.949Z,6.33
2019-05-02T19:37:22.717Z,6.87
2019-05-02T19:40:14.952Z,5.72
2019-05-02T19:43:07.551Z,6.17
2019-05-02T19:45:54.051Z,5.40
2019-05-02T19:48:43.024Z,6.85
2019-05-02T19:51:31.715Z,6.10
2019-05-02T19:54:21.839Z,7.35
2019-05-02T19:57:11.852Z,6.25
2019-05-02T20:00:02.858Z,6.67
2019-05-02T20:02:50.033Z,6.10
2019-05-02T20:05:38.635Z,5.55
2019-05-02T20:08:26.999Z,6.47
2019-05-02T20:11:15.284Z,7.67
2019-05-02T20:14:09.162Z,10.65
2019-05-02T20:16:55.603Z,7.62
2019-05-02T20:19:45.122Z,45.20
2019-05-02T20:22:36.265Z,23.62
2019-05-02T20:25:23.507Z,10.30
2019-05-02T20:28:11.598Z,19.95
2019-05-02T20:31:01.672Z,6.28
2019-05-02T20:33:52.020Z,5.37
2019-05-02T20:36:39.991Z,7.80
2019-05-02T20:39:28.738Z,5.12
2019-05-02T20:42:16.740Z,3.77
2019-05-02T20:45:07.513Z,4.00
2019-05-02T20:47:55.497Z,22.67
2019-05-02T20:50:43.806Z,4.78
2019-05-02T20:53:34.280Z,9.10
2019-05-02T20:56:22.971Z,15.28
2019-05-02T20:59:12.693Z,4.70
2019-05-02T21:02:01.711Z,15.65
2019-05-02T21:04:52.141Z,21.57
2019-05-02T21:07:52.398Z,6.25
2019-05-02T21:10:41.776Z,15.90
2019-05-02T21:13:32.725Z,12.43
2019-05-02T21:16:21.883Z,25.62
2019-05-02T21:19:12.240Z,35.17
2019-05-02T21:22:02.556Z,18.50
2019-05-02T21:24:52.692Z,29.55
2019-05-02T21:27:41.815Z,6.62
2019-05-02T21:30:32.268Z,18.60
2019-05-02T21:33:35.618Z,3.80
2019-05-02T21:36:23.808Z,4.65
2019-05-02T21:39:12.840Z,2.10
2019-05-02T21:42:02.340Z,2.45
2019-05-02T21:44:51.806Z,0.80
2019-05-02T21:47:42.047Z,1.47
2019-05-02T21:50:32.321Z,2.00
2019-05-02T21:53:24.619Z,1.67
2019-05-02T21:56:17.510Z,1.55
2019-05-02T21:59:06.092Z,0.90
2019-05-02T22:01:58.876Z,0.85
2019-05-02T22:04:46.722Z,1.35
2019-05-02T22:07:34.684Z,1.10
2019-05-02T22:10:22.796Z,1.00
2019-05-02T22:13:11.284Z,1.20
2019-05-02T22:15:59.036Z,1.02
2019-05-02T22:18:47.652Z,1.10
2019-05-02T22:21:36.181Z,1.20
2019-05-02T22:24:24.332Z,1.02
2019-05-02T22:27:12.486Z,1.10
2019-05-02T22:30:02.127Z,1.40
2019-05-02T22:32:51.668Z,1.02
2019-05-02T22:35:43.197Z,1.02
2019-05-02T22:38:31.819Z,1.25
2019-05-02T22:41:22.036Z,1.20
2019-05-02T22:44:09.452Z,1.05
2019-05-02T22:46:57.725Z,1.25
2019-05-02T22:49:45.668Z,0.80
2019-05-02T22:52:33.840Z,1.37
2019-05-02T22:55:22.620Z,1.17
2019-05-02T22:58:11.216Z,1.42
2019-05-02T23:01:01.580Z,1.45
2019-05-02T23:03:48.974Z,1.37
2019-05-02T23:06:37.026Z,1.37
2019-05-02T23:09:24.945Z,1.30
2019-05-02T23:12:13.464Z,1.95
2019-05-02T23:15:02.092Z,2.15
2019-05-02T23:17:52.260Z,1.92
2019-05-02T23:20:42.169Z,1.67
2019-05-02T23:23:32.734Z,1.98
2019-05-02T23:26:31.760Z,1.92
2019-05-02T23:29:20.154Z,1.70
2019-05-02T23:32:09.003Z,1.85
2019-05-02T23:34:57.179Z,1.60
2019-05-02T23:37:45.060Z,1.00
2019-05-02T23:40:33.509Z,1.50
2019-05-02T23:43:21.908Z,1.02
2019-05-02T23:46:11.618Z,1.47
2019-05-02T23:49:01.859Z,1.20
2019-05-02T23:51:49.440Z,1.30
2019-05-02T23:54:49.272Z,1.32
2019-05-02T23:57:26.918Z,1.62
